createdAt,value
2023-05-02T00:01:27.258Z,13.45
2023-05-02T00:03:57.152Z,14.60
2023-05-02T00:06:31.293Z,12.02
2023-05-02T00:08:59.924Z,14.60
2023-05-02T00:11:31.749Z,16.58
2023-05-02T00:14:00.131Z,16.92
2023-05-02T00:16:30.922Z,16.50
2023-05-02T00:19:00.801Z,16.75
2023-05-02T00:21:30.068Z,18.17
2023-05-02T00:24:01.201Z,19.35
2023-05-02T00:26:29.933Z,16.42
2023-05-02T00:29:00.976Z,17.35
2023-05-02T00:31:31.760Z,14.40
2023-05-02T00:34:05.003Z,15.77
2023-05-02T00:36:33.448Z,14.00
2023-05-02T00:39:04.246Z,14.52
2023-05-02T00:41:32.505Z,12.20
2023-05-02T00:44:02.044Z,11.38
2023-05-02T00:46:31.346Z,9.63
2023-05-02T00:49:04.436Z,6.50
2023-05-02T00:51:36.981Z,10.13
2023-05-02T00:54:08.095Z,7.18
2023-05-02T00:56:36.919Z,6.32
2023-05-02T00:59:06.056Z,4.63
2023-05-02T01:01:45.595Z,6.97
2023-05-02T01:04:22.476Z,6.22
2023-05-02T01:06:55.651Z,8.65
2023-05-02T01:09:31.502Z,5.03
2023-05-02T01:12:04.758Z,4.57
2023-05-02T01:14:37.836Z,8.77
2023-05-02T01:17:07.235Z,7.93
2023-05-02T01:19:39.968Z,6.78
2023-05-02T01:22:09.996Z,9.75
2023-05-02T01:24:40.673Z,5.22
2023-05-02T01:27:15.804Z,9.50
2023-05-02T01:29:47.421Z,4.70
2023-05-02T01:32:16.923Z,10.50
2023-05-02T01:34:46.498Z,11.93
2023-05-02T01:37:17.660Z,7.40
2023-05-02T01:39:46.327Z,5.30
2023-05-02T01:42:15.631Z,10.93
2023-05-02T01:44:49.341Z,4.15
2023-05-02T01:47:18.484Z,10.23
2023-05-02T01:49:48.267Z,5.40
2023-05-02T01:52:22.569Z,12.57
2023-05-02T01:54:52.697Z,8.77
2023-05-02T01:57:23.551Z,7.30
2023-05-02T01:59:54.501Z,9.45
2023-05-02T02:02:23.151Z,9.75
2023-05-02T02:04:52.052Z,12.52
2023-05-02T02:07:22.817Z,14.13
2023-05-02T02:09:51.300Z,13.32
2023-05-02T02:12:31.978Z,5.95
2023-05-02T02:15:15.325Z,6.30
2023-05-02T02:17:45.079Z,6.53
2023-05-02T02:20:15.078Z,8.13
2023-05-02T02:22:45.011Z,10.40
2023-05-02T02:25:15.115Z,7.22
2023-05-02T02:27:43.929Z,7.03
2023-05-02T02:30:13.788Z,5.00
2023-05-02T02:32:42.161Z,6.05
2023-05-02T02:35:11.208Z,8.30
2023-05-02T02:37:48.454Z,5.80
2023-05-02T02:40:23.544Z,6.93
2023-05-02T02:42:56.487Z,3.28
2023-05-02T02:45:32.099Z,2.72
2023-05-02T02:48:04.927Z,2.45
2023-05-02T02:50:36.534Z,3.13
2023-05-02T02:53:07.230Z,2.10
2023-05-02T02:55:40.281Z,6.53
2023-05-02T02:58:13.028Z,1.88
2023-05-02T03:00:43.104Z,3.40
2023-05-02T03:03:15.940Z,2.85
2023-05-02T03:05:44.805Z,3.30
2023-05-02T03:08:20.540Z,3.47
2023-05-02T03:10:48.868Z,3.50
2023-05-02T03:13:18.167Z,1.63
2023-05-02T03:16:02.341Z,5.35
2023-05-02T03:18:33.819Z,4.65
2023-05-02T03:21:07.147Z,5.03
2023-05-02T03:23:36.451Z,5.45
2023-05-02T03:26:04.844Z,2.75
2023-05-02T03:28:35.647Z,2.88
2023-05-02T03:31:05.452Z,4.75
2023-05-02T03:33:39.316Z,2.53
2023-05-02T03:36:08.134Z,4.57
2023-05-02T03:38:36.490Z,5.70
2023-05-02T03:41:08.780Z,6.35
2023-05-02T03:43:37.706Z,3.35
2023-05-02T03:46:07.777Z,2.88
2023-05-02T03:48:40.171Z,4.15
2023-05-02T03:51:09.940Z,5.53
2023-05-02T03:53:46.100Z,6.80
2023-05-02T03:56:14.525Z,5.78
2023-05-02T03:58:53.138Z,10.45
2023-05-02T04:01:32.647Z,5.13
2023-05-02T04:04:03.950Z,5.40
2023-05-02T04:06:39.635Z,10.27
2023-05-02T04:09:12.570Z,6.50
2023-05-02T04:11:48.024Z,6.07
2023-05-02T04:14:18.823Z,3.03
2023-05-02T04:16:50.792Z,5.38
2023-05-02T04:19:28.607Z,4.25
2023-05-02T04:22:01.964Z,5.15
2023-05-02T04:24:31.086Z,2.97
2023-05-02T04:27:02.810Z,4.85
2023-05-02T04:29:34.203Z,2.38
2023-05-02T04:32:07.775Z,4.18
2023-05-02T04:34:37.738Z,6.85
2023-05-02T04:37:06.323Z,5.28
2023-05-02T04:39:35.711Z,3.05
2023-05-02T04:42:08.368Z,6.80
2023-05-02T04:44:46.200Z,6.78
2023-05-02T04:47:20.259Z,3.88
2023-05-02T04:49:49.944Z,4.97
2023-05-02T04:52:18.580Z,3.70
2023-05-02T04:54:47.246Z,6.28
2023-05-02T04:57:16.214Z,5.85
2023-05-02T04:59:49.068Z,6.22
2023-05-02T05:02:17.574Z,4.72
2023-05-02T05:04:48.256Z,5.65
2023-05-02T05:07:19.313Z,4.15
2023-05-02T05:09:53.563Z,3.30
2023-05-02T05:12:30.978Z,4.70
2023-05-02T05:14:59.991Z,5.65
2023-05-02T05:17:37.860Z,6.57
2023-05-02T05:20:08.939Z,7.30
2023-05-02T05:22:41.864Z,7.68
2023-05-02T05:25:12.300Z,4.22
2023-05-02T05:27:41.348Z,7.07
2023-05-02T05:30:11.810Z,6.20
2023-05-02T05:32:43.762Z,7.63
2023-05-02T05:35:13.212Z,9.93
2023-05-02T05:37:46.034Z,9.52
2023-05-02T05:40:17.888Z,5.70
2023-05-02T05:42:53.710Z,11.35
2023-05-02T05:45:28.006Z,7.20
2023-05-02T05:47:56.968Z,4.47
2023-05-02T05:50:32.508Z,8.48
2023-05-02T05:53:02.329Z,4.80
2023-05-02T05:55:33.347Z,4.57
2023-05-02T05:58:06.234Z,9.15
2023-05-02T06:00:41.825Z,5.90
2023-05-02T06:03:10.364Z,7.57
2023-05-02T06:05:39.693Z,7.93
2023-05-02T06:08:10.472Z,8.10
2023-05-02T06:10:38.949Z,6.70
2023-05-02T06:13:07.332Z,6.45
2023-05-02T06:15:38.829Z,6.60
2023-05-02T06:18:08.435Z,7.13
2023-05-02T06:20:39.756Z,4.10
2023-05-02T06:23:10.515Z,9.02
2023-05-02T06:25:40.690Z,4.60
2023-05-02T06:28:11.505Z,13.13
2023-05-02T06:30:40.004Z,5.07
2023-05-02T06:33:08.399Z,5.88
2023-05-02T06:35:36.872Z,7.22
2023-05-02T06:38:05.160Z,4.70
2023-05-02T06:40:33.723Z,6.78
2023-05-02T06:43:05.822Z,5.68
2023-05-02T06:45:34.179Z,5.38
2023-05-02T06:48:02.454Z,4.05
2023-05-02T06:50:31.242Z,6.75
2023-05-02T06:52:59.880Z,3.55
2023-05-02T06:55:31.171Z,4.47
2023-05-02T06:57:59.821Z,3.60
2023-05-02T07:00:32.438Z,7.50
2023-05-02T07:03:00.970Z,4.15
2023-05-02T07:05:32.094Z,9.23
2023-05-02T07:08:01.014Z,6.88
2023-05-02T07:10:33.666Z,10.68
2023-05-02T07:13:02.084Z,4.72
2023-05-02T07:15:31.901Z,2.78
2023-05-02T07:18:00.792Z,7.57
2023-05-02T07:20:29.939Z,5.70
2023-05-02T07:22:58.808Z,4.68
2023-05-02T07:25:30.039Z,5.78
2023-05-02T07:27:58.882Z,5.70
2023-05-02T07:30:29.795Z,6.72
2023-05-02T07:33:01.973Z,8.68
2023-05-02T07:35:35.208Z,9.95
2023-05-02T07:38:03.561Z,5.53
2023-05-02T07:40:38.844Z,3.13
2023-05-02T07:43:11.168Z,4.30
2023-05-02T07:45:39.921Z,7.18
2023-05-02T07:48:09.574Z,4.60
2023-05-02T07:50:45.430Z,3.03
2023-05-02T07:53:14.424Z,4.60
2023-05-02T07:55:42.839Z,3.85
2023-05-02T07:58:11.316Z,5.13
2023-05-02T08:00:39.671Z,8.18
2023-05-02T08:03:12.906Z,9.77
2023-05-02T08:05:45.382Z,7.88
2023-05-02T08:08:13.778Z,4.82
2023-05-02T08:10:42.065Z,3.70
2023-05-02T08:13:10.636Z,3.75
2023-05-02T08:15:39.109Z,3.67
2023-05-02T08:18:12.362Z,2.53
2023-05-02T08:20:40.802Z,4.47
2023-05-02T08:23:12.667Z,5.35
2023-05-02T08:25:50.533Z,3.85
2023-05-02T08:28:19.831Z,3.03
2023-05-02T08:30:49.039Z,6.07
2023-05-02T08:33:17.603Z,3.78
2023-05-02T08:35:46.081Z,3.08
2023-05-02T08:38:15.834Z,2.63
2023-05-02T08:40:44.301Z,5.82
2023-05-02T08:43:15.605Z,1.70
2023-05-02T08:45:45.545Z,3.55
2023-05-02T08:48:16.805Z,4.03
2023-05-02T08:50:48.388Z,3.28
2023-05-02T08:53:21.679Z,2.55
2023-05-02T08:55:53.303Z,1.50
2023-05-02T08:58:21.594Z,3.42
2023-05-02T09:00:52.907Z,3.63
2023-05-02T09:03:25.693Z,3.00
2023-05-02T09:05:59.084Z,7.78
2023-05-02T09:08:28.822Z,2.95
2023-05-02T09:10:57.324Z,3.72
2023-05-02T09:13:32.798Z,2.50
2023-05-02T09:16:04.133Z,3.42
2023-05-02T09:18:33.583Z,4.30
2023-05-02T09:21:02.244Z,4.57
2023-05-02T09:23:38.833Z,2.90
2023-05-02T09:26:19.915Z,4.20
2023-05-02T09:28:49.013Z,1.95
2023-05-02T09:31:27.015Z,1.70
2023-05-02T09:34:10.640Z,5.32
2023-05-02T09:36:41.198Z,7.97
2023-05-02T09:39:16.948Z,1.73
2023-05-02T09:41:46.561Z,4.57
2023-05-02T09:44:20.383Z,2.35
2023-05-02T09:46:49.559Z,2.53
2023-05-02T09:49:20.085Z,4.28
2023-05-02T09:51:48.782Z,3.45
2023-05-02T09:54:36.430Z,2.63
2023-05-02T09:57:07.043Z,3.20
2023-05-02T09:59:37.802Z,5.40
2023-05-02T10:02:11.094Z,5.53
2023-05-02T10:04:42.988Z,3.25
2023-05-02T10:07:12.228Z,2.35
2023-05-02T10:09:44.978Z,3.22
2023-05-02T10:12:16.907Z,2.35
2023-05-02T10:14:59.937Z,2.47
2023-05-02T10:17:30.117Z,4.20
2023-05-02T10:19:59.838Z,2.60
2023-05-02T10:22:28.718Z,2.25
2023-05-02T10:25:02.460Z,5.10
2023-05-02T10:27:32.184Z,2.50
2023-05-02T10:30:01.217Z,2.15
2023-05-02T10:32:30.041Z,2.88
2023-05-02T10:34:59.011Z,3.25
2023-05-02T10:37:28.629Z,1.85
2023-05-02T10:39:58.704Z,2.50
2023-05-02T10:42:27.623Z,4.43
2023-05-02T10:44:56.060Z,4.68
2023-05-02T10:47:28.092Z,3.05
2023-05-02T10:49:57.512Z,5.85
2023-05-02T10:52:30.164Z,4.93
2023-05-02T10:55:21.432Z,9.82
2023-05-02T10:58:10.938Z,3.20
2023-05-02T11:00:41.777Z,4.00
2023-05-02T11:03:12.407Z,10.48
2023-05-02T11:05:55.589Z,5.75
2023-05-02T11:08:33.307Z,3.97
2023-05-02T11:11:18.890Z,3.38
2023-05-02T11:13:52.486Z,2.15
2023-05-02T11:16:20.953Z,3.17
2023-05-02T11:19:02.267Z,3.47
2023-05-02T11:21:32.785Z,4.57
2023-05-02T11:24:22.288Z,5.80
2023-05-02T11:26:51.456Z,4.22
2023-05-02T11:29:34.610Z,3.70
2023-05-02T11:32:04.930Z,3.40
2023-05-02T11:34:48.290Z,2.63
2023-05-02T11:37:16.943Z,3.65
2023-05-02T11:39:55.037Z,4.97
2023-05-02T11:42:30.770Z,2.15
2023-05-02T11:45:00.137Z,2.78
2023-05-02T11:47:35.149Z,4.22
2023-05-02T11:50:06.251Z,2.78
2023-05-02T11:52:41.522Z,2.92
2023-05-02T11:55:23.749Z,4.57
2023-05-02T11:57:52.059Z,10.88
2023-05-02T12:00:20.906Z,5.03
2023-05-02T12:02:50.701Z,2.80
2023-05-02T12:05:33.701Z,3.20
2023-05-02T12:08:02.578Z,3.45
2023-05-02T12:10:42.523Z,8.13
2023-05-02T12:13:13.333Z,7.00
2023-05-02T12:15:41.950Z,3.60
2023-05-02T12:18:13.920Z,5.60
2023-05-02T12:20:45.260Z,15.52
2023-05-02T12:23:13.986Z,3.00
2023-05-02T12:25:42.827Z,3.38
2023-05-02T12:28:11.843Z,5.00
2023-05-02T12:30:41.533Z,3.88
2023-05-02T12:33:12.233Z,2.45
2023-05-02T12:35:43.367Z,3.92
2023-05-02T12:38:12.939Z,3.33
2023-05-02T12:40:41.442Z,3.60
2023-05-02T12:43:12.153Z,4.57
2023-05-02T12:45:40.674Z,5.45
2023-05-02T12:48:25.787Z,2.35
2023-05-02T12:50:56.461Z,2.78
2023-05-02T12:53:41.131Z,11.60
2023-05-02T12:56:10.458Z,3.65
2023-05-02T12:58:45.790Z,4.28
2023-05-02T13:01:15.132Z,2.10
2023-05-02T13:03:44.141Z,6.63
2023-05-02T13:06:14.075Z,3.80
2023-05-02T13:08:42.382Z,4.72
2023-05-02T13:11:10.622Z,4.60
2023-05-02T13:13:38.966Z,5.93
2023-05-02T13:16:08.130Z,5.03
2023-05-02T13:18:36.593Z,4.00
2023-05-02T13:21:07.579Z,4.78
2023-05-02T13:23:40.990Z,2.58
2023-05-02T13:26:09.611Z,6.00
2023-05-02T13:28:37.897Z,2.95
2023-05-02T13:31:06.500Z,4.47
2023-05-02T13:33:35.542Z,4.95
2023-05-02T13:36:03.775Z,5.97
2023-05-02T13:38:32.549Z,4.10
2023-05-02T13:41:09.636Z,7.68
2023-05-02T13:43:39.313Z,2.38
2023-05-02T13:46:07.850Z,4.40
2023-05-02T13:48:37.438Z,3.58
2023-05-02T13:51:15.215Z,4.78
2023-05-02T13:53:43.738Z,4.85
2023-05-02T13:56:13.380Z,6.72
2023-05-02T13:58:42.268Z,4.35
2023-05-02T14:01:10.820Z,3.83
2023-05-02T14:03:41.668Z,5.28
2023-05-02T14:06:10.083Z,5.13
2023-05-02T14:08:38.601Z,4.93
2023-05-02T14:11:07.449Z,4.18
2023-05-02T14:13:37.801Z,7.93
2023-05-02T14:16:06.648Z,6.00
2023-05-02T14:18:34.920Z,4.15
2023-05-02T14:21:05.886Z,7.63
2023-05-02T14:23:36.656Z,5.25
2023-05-02T14:26:04.911Z,4.72
2023-05-02T14:28:36.264Z,5.53
2023-05-02T14:31:09.401Z,9.13
2023-05-02T14:33:40.364Z,7.55
2023-05-02T14:36:09.215Z,4.60
2023-05-02T14:38:37.626Z,9.38
2023-05-02T14:41:06.966Z,6.78
2023-05-02T14:43:36.306Z,6.50
2023-05-02T14:46:04.821Z,7.43
2023-05-02T14:48:34.575Z,5.72
2023-05-02T14:51:04.789Z,6.68
2023-05-02T14:53:33.367Z,4.10
2023-05-02T14:56:01.848Z,5.78
2023-05-02T14:58:30.945Z,3.85
2023-05-02T15:01:01.877Z,4.07
2023-05-02T15:03:39.352Z,5.60
2023-05-02T15:06:23.296Z,6.43
2023-05-02T15:08:52.120Z,8.23
2023-05-02T15:11:20.350Z,3.28
2023-05-02T15:13:48.592Z,2.72
2023-05-02T15:16:17.408Z,6.28
2023-05-02T15:18:48.150Z,6.90
2023-05-02T15:21:17.896Z,7.85
2023-05-02T15:23:47.536Z,2.72
2023-05-02T15:26:21.286Z,4.05
2023-05-02T15:28:49.664Z,4.30
2023-05-02T15:31:17.921Z,6.28
2023-05-02T15:33:46.510Z,9.68
2023-05-02T15:36:15.915Z,5.72
2023-05-02T15:38:45.614Z,6.82
2023-05-02T15:41:18.500Z,5.15
2023-05-02T15:43:49.278Z,6.63
2023-05-02T15:46:17.630Z,5.65
2023-05-02T15:48:46.190Z,5.13
2023-05-02T15:51:16.986Z,2.40
2023-05-02T15:53:49.772Z,4.25
2023-05-02T15:56:18.071Z,2.17
2023-05-02T15:58:46.383Z,6.90
2023-05-02T16:01:14.713Z,9.75
2023-05-02T16:03:48.141Z,5.15
2023-05-02T16:06:17.586Z,4.82
2023-05-02T16:08:52.171Z,5.70
2023-05-02T16:11:21.020Z,5.85
2023-05-02T16:13:49.461Z,3.75
2023-05-02T16:16:20.166Z,4.15
2023-05-02T16:18:48.454Z,3.97
2023-05-02T16:21:17.032Z,2.45
2023-05-02T16:23:56.150Z,3.17
2023-05-02T16:26:24.571Z,2.38
2023-05-02T16:28:55.245Z,3.10
2023-05-02T16:31:26.129Z,4.57
2023-05-02T16:33:58.038Z,2.50
2023-05-02T16:36:29.883Z,3.47
2023-05-02T16:38:59.784Z,1.60
2023-05-02T16:41:28.533Z,5.70
2023-05-02T16:43:56.971Z,1.85
2023-05-02T16:46:25.388Z,3.95
2023-05-02T16:48:53.762Z,8.38
2023-05-02T16:51:22.693Z,2.28
2023-05-02T16:53:51.274Z,3.58
2023-05-02T16:56:21.443Z,3.65
2023-05-02T16:58:49.706Z,4.78
2023-05-02T17:01:18.409Z,3.28
2023-05-02T17:03:46.983Z,1.27
2023-05-02T17:06:15.956Z,3.17
2023-05-02T17:08:44.376Z,5.35
2023-05-02T17:11:13.326Z,1.45
2023-05-02T17:13:43.592Z,3.53
2023-05-02T17:16:12.230Z,4.90
2023-05-02T17:18:40.826Z,3.03
2023-05-02T17:21:09.194Z,4.30
2023-05-02T17:23:37.502Z,3.80
2023-05-02T17:26:14.462Z,3.22
2023-05-02T17:28:44.943Z,2.72
2023-05-02T17:31:14.086Z,2.08
2023-05-02T17:33:43.058Z,2.55
2023-05-02T17:36:11.714Z,3.80
2023-05-02T17:38:40.216Z,5.68
2023-05-02T17:41:08.667Z,2.67
2023-05-02T17:43:38.042Z,1.88
2023-05-02T17:46:10.240Z,1.10
2023-05-02T17:48:41.773Z,6.22
2023-05-02T17:51:11.835Z,4.13
2023-05-02T17:53:40.513Z,1.65
2023-05-02T17:56:09.145Z,1.35
2023-05-02T17:58:37.720Z,3.78
2023-05-02T18:01:11.021Z,3.00
2023-05-02T18:03:40.296Z,3.42
2023-05-02T18:06:09.191Z,1.92
2023-05-02T18:08:37.657Z,3.13
2023-05-02T18:11:06.330Z,1.73
2023-05-02T18:13:36.229Z,1.05
2023-05-02T18:16:08.669Z,1.73
2023-05-02T18:18:38.628Z,1.00
2023-05-02T18:21:07.139Z,2.42
2023-05-02T18:23:35.431Z,1.65
2023-05-02T18:26:03.837Z,2.92
2023-05-02T18:28:32.486Z,2.08
2023-05-02T18:31:04.389Z,1.52
2023-05-02T18:33:33.167Z,1.70
2023-05-02T18:36:03.213Z,3.15
2023-05-02T18:38:32.687Z,2.63
2023-05-02T18:41:01.685Z,2.78
2023-05-02T18:43:31.405Z,5.45
2023-05-02T18:45:59.877Z,3.25
2023-05-02T18:48:30.356Z,2.30
2023-05-02T18:51:01.542Z,1.90
2023-05-02T18:53:35.661Z,1.20
2023-05-02T18:56:08.557Z,4.63
2023-05-02T18:58:37.255Z,2.22
2023-05-02T19:01:13.156Z,2.65
2023-05-02T19:03:42.182Z,3.50
2023-05-02T19:06:10.895Z,4.05
2023-05-02T19:08:42.225Z,1.65
2023-05-02T19:11:15.398Z,2.45
2023-05-02T19:13:46.134Z,0.63
2023-05-02T19:16:15.092Z,1.08
2023-05-02T19:18:44.370Z,2.78
2023-05-02T19:21:13.628Z,2.72
2023-05-02T19:23:43.921Z,1.40
2023-05-02T19:26:12.993Z,2.55
2023-05-02T19:28:41.439Z,2.50
2023-05-02T19:31:12.738Z,2.08
2023-05-02T19:33:41.617Z,6.13
2023-05-02T19:36:12.494Z,4.70
2023-05-02T19:38:41.630Z,2.65
2023-05-02T19:41:11.350Z,3.65
2023-05-02T19:43:40.037Z,1.65
2023-05-02T19:46:08.469Z,3.50
2023-05-02T19:48:37.760Z,1.20
2023-05-02T19:51:06.555Z,3.60
2023-05-02T19:53:40.518Z,1.77
2023-05-02T19:56:11.325Z,1.20
2023-05-02T19:58:41.153Z,1.52
2023-05-02T20:01:11.976Z,3.05
2023-05-02T20:03:47.175Z,2.97
2023-05-02T20:06:17.966Z,1.38
2023-05-02T20:08:46.286Z,3.58
2023-05-02T20:11:14.582Z,4.70
2023-05-02T20:13:45.163Z,0.95
2023-05-02T20:16:19.211Z,2.08
2023-05-02T20:18:47.651Z,2.25
2023-05-02T20:21:20.345Z,1.65
2023-05-02T20:23:48.659Z,2.42
2023-05-02T20:26:21.325Z,1.92
2023-05-02T20:28:52.976Z,1.98
2023-05-02T20:31:26.046Z,1.75
2023-05-02T20:33:54.506Z,2.38
2023-05-02T20:36:25.116Z,3.92
2023-05-02T20:38:53.655Z,1.50
2023-05-02T20:41:23.840Z,2.30
2023-05-02T20:43:54.561Z,2.60
2023-05-02T20:46:25.505Z,1.67
2023-05-02T20:48:53.861Z,1.48
2023-05-02T20:51:22.407Z,1.60
2023-05-02T20:53:50.787Z,4.00
2023-05-02T20:56:19.161Z,1.85
2023-05-02T20:58:47.572Z,3.70
2023-05-02T21:01:19.684Z,1.13
2023-05-02T21:03:50.637Z,0.90
2023-05-02T21:06:22.377Z,3.67
2023-05-02T21:08:50.691Z,2.35
2023-05-02T21:11:21.833Z,2.35
2023-05-02T21:13:57.485Z,1.17
2023-05-02T21:16:30.067Z,3.65
2023-05-02T21:18:58.681Z,2.47
2023-05-02T21:21:26.958Z,1.90
2023-05-02T21:23:58.691Z,1.27
2023-05-02T21:26:27.216Z,3.65
2023-05-02T21:28:57.775Z,1.77
2023-05-02T21:31:27.562Z,1.65
2023-05-02T21:33:56.022Z,2.63
2023-05-02T21:36:24.442Z,3.05
2023-05-02T21:38:52.634Z,3.58
2023-05-02T21:41:21.286Z,3.00
2023-05-02T21:43:56.725Z,1.10
2023-05-02T21:46:25.135Z,0.75
2023-05-02T21:48:57.217Z,2.83
2023-05-02T21:51:25.495Z,3.97
2023-05-02T21:53:54.520Z,2.05
2023-05-02T21:56:25.544Z,2.03
2023-05-02T21:58:53.919Z,2.75
2023-05-02T22:01:24.829Z,2.30
2023-05-02T22:03:54.490Z,2.88
2023-05-02T22:06:25.368Z,1.42
2023-05-02T22:08:58.144Z,1.70
2023-05-02T22:11:31.818Z,1.83
2023-05-02T22:14:02.888Z,2.28
2023-05-02T22:16:31.472Z,3.40
2023-05-02T22:19:01.616Z,1.25
2023-05-02T22:21:35.228Z,2.13
2023-05-02T22:24:03.478Z,3.15
2023-05-02T22:26:31.866Z,2.00
2023-05-02T22:29:00.154Z,5.10
2023-05-02T22:31:28.803Z,5.05
2023-05-02T22:33:57.187Z,3.17
2023-05-02T22:36:27.726Z,1.67
2023-05-02T22:38:58.802Z,2.92
2023-05-02T22:41:30.165Z,3.83
2023-05-02T22:43:58.673Z,2.63
2023-05-02T22:46:29.999Z,3.28
2023-05-02T22:48:58.817Z,5.32
2023-05-02T22:51:28.794Z,7.13
2023-05-02T22:53:59.876Z,2.60
2023-05-02T22:56:28.754Z,2.17
2023-05-02T22:58:59.862Z,2.47
2023-05-02T23:01:34.509Z,3.42
2023-05-02T23:04:03.052Z,3.40
2023-05-02T23:06:33.148Z,3.53
2023-05-02T23:09:10.897Z,1.20
2023-05-02T23:11:41.784Z,2.70
2023-05-02T23:14:10.260Z,3.83
2023-05-02T23:16:41.083Z,2.33
2023-05-02T23:19:11.918Z,3.35
2023-05-02T23:21:42.173Z,2.42
2023-05-02T23:24:10.838Z,4.40
2023-05-02T23:26:41.436Z,6.18
2023-05-02T23:29:11.015Z,3.97
2023-05-02T23:31:39.522Z,4.57
2023-05-02T23:34:08.020Z,3.72
2023-05-02T23:36:36.784Z,2.00
2023-05-02T23:39:06.422Z,3.70
2023-05-02T23:41:35.424Z,2.97
2023-05-02T23:44:03.881Z,3.05
2023-05-02T23:46:32.257Z,4.18
2023-05-02T23:49:00.663Z,2.75
2023-05-02T23:51:31.961Z,2.83
2023-05-02T23:54:05.109Z,3.17
2023-05-02T23:56:37.366Z,2.72
2023-05-02T23:59:05.568Z,3.20
